Flight Track Log - Related Links

Times and Time Zones

All times are in EDT time to prevent confusion due to time zone crossing. See the EJA396 flight status page for this flight to view local times or setup timezone preferences in your user account.

Time Position Orientation Groundspeed Altitude Reporting Facility
EDT Latitude Longitude Course Direction KTS MPH feet Rate Location/Type
Fri 02:12:10 PM 38.7667 -90.3833 293° West 167 192 2,000  Level Gateway (St. Louis) TRACON
Fri 02:12:59 PM 38.7889 -90.4494 293° West 245 282 4,800 1,768 Climbing Kansas City Center
Fri 02:14:02 PM 38.8125 -90.5333 290° West 250 288 5,300 2,439 Climbing Kansas City Center
Fri 02:15:02 PM 38.8478 -90.6128 300° West 257 296 9,800 4,403 Climbing Kansas City Center
Fri 02:16:06 PM 38.8875 -90.7028 300° West 284 327 14,400 3,984 Climbing Kansas City Center
Fri 02:17:07 PM 38.9317 -90.8025 300° West 311 358 18,100 3,273 Climbing Kansas City Center
Fri 02:18:07 PM 38.9800 -90.9119 300° West 342 394 21,000 2,688 Climbing Kansas City Center
Fri 02:19:12 PM 39.0425 -91.0547 299° West 375 432 23,700 1,920 Climbing Kansas City Center
Fri 02:20:12 PM 39.1031 -91.1744 303° West 393 452 25,000 639 Climbing Kansas City Center
Fri 02:21:14 PM 39.1689 -91.2911 306° West 398 458 25,000  Level Kansas City Center
Fri 02:22:18 PM 39.2325 -91.4064 305° West 398 458 25,000 532 Level Kansas City Center
Fri 02:23:18 PM 39.2967 -91.5211 306° West 397 457 26,100 1,258 Climbing Kansas City Center
Fri 02:24:22 PM 39.3636 -91.6433 305° West 411 473 27,600 912 Climbing Kansas City Center
Fri 02:25:23 PM 39.4369 -91.7772 305° West 420 483 28,000 192 Climbing Kansas City Center
Fri 02:26:27 PM 39.5039 -91.8992 305° West 420 483 28,000  Level Kansas City Center
Fri 02:27:28 PM 39.5825 -92.0467 305° West 418 481 28,000  Level Kansas City Center
Fri 02:28:28 PM 39.6489 -92.1697 305° West 418 481 28,000  Level Kansas City Center
Fri 02:29:32 PM 39.7153 -92.2903 306° West 417 480 28,000  Level Kansas City Center
Fri 02:30:33 PM 39.7808 -92.4117 305° West 413 475 28,000  Level Kansas City Center
Fri 02:31:37 PM 39.8453 -92.5311 305° West 409 471 28,000  Level Kansas City Center
Fri 02:32:37 PM 39.9103 -92.6531 305° West 408 470 28,000  Level Kansas City Center
Fri 02:33:40 PM 39.9883 -92.7978 305° West 407 468 28,000  Level Kansas City Center
Fri 02:34:41 PM 40.0522 -92.9192 305° West 407 468 28,000  Level Kansas City Center
Fri 02:35:46 PM 40.1144 -93.0372 305° West 406 467 28,000  Level Kansas City Center
Fri 02:36:46 PM 40.1783 -93.1603 304° West 402 463 28,000  Level Kansas City Center
Fri 02:37:50 PM 40.2422 -93.2814 305° West 401 461 28,000  Level Kansas City Center
Fri 02:38:50 PM 40.3047 -93.4008 304° West 401 461 28,000  Level Kansas City Center
Fri 02:39:52 PM 40.3786 -93.5439 304° West 396 456 28,000  Level Kansas City Center
Fri 02:40:56 PM 40.4392 -93.6611 304° West 395 455 28,000  Level Kansas City Center
Fri 02:41:57 PM 40.4969 -93.7736 304° West 380 437 28,000  Level Kansas City Center
Fri 02:43:00 PM 40.5528 -93.8808 304° West 362 417 28,000  Level Kansas City Center
Fri 02:44:01 PM 40.6028 -93.9936 300° West 361 415 28,000 -295 Level Kansas City Center
Fri 02:45:02 PM 40.6228 -94.1242 281° West 364 419 27,400 -1,171 Descending Kansas City Center
Fri 02:46:04 PM 40.6483 -94.2764 283° West 360 414 25,600 -1,680 Descending Kansas City Center
Fri 02:47:07 PM 40.6683 -94.4008 282° West 357 411 23,900 -1,619 Descending Kansas City Center
Fri 02:48:10 PM 40.6881 -94.5222 282° West 353 406 22,200 -1,694 Descending Kansas City Center
Fri 02:49:11 PM 40.7075 -94.6442 282° West 345 397 20,400 -1,951 Descending Kansas City Center
Fri 02:50:13 PM 40.7311 -94.7878 282° West 342 394 18,200 -1,571 Descending Kansas City Center
Fri 02:51:17 PM 40.7503 -94.9067 282° West 338 389 17,100 -1,018 Descending Kansas City Center
Fri 02:52:05 PM 40.7775 -94.9931 293° West 311 358 16,300 -870 Descending Minneapolis Center
Fri 02:52:26 PM 40.7692 -95.0292 253° West 318 366 16,100 -1,377 Descending Minneapolis Center
Fri 02:53:06 PM 40.8022 -95.1000 302° West 306 352 14,900 -1,548 Descending Minneapolis Center
Fri 02:53:28 PM 40.8039 -95.1294 274° West 307 353 14,500 -1,970 Descending Minneapolis Center
Fri 02:54:13 PM 40.8597 -95.1975 317° Northwest 283 326 12,700 -2,323 Descending Minneapolis Center
Fri 02:54:30 PM 40.8644 -95.2272 282° West 289 333 12,100 -1,967 Descending Minneapolis Center
Fri 02:55:14 PM 40.9075 -95.2800 317° Northwest 281 323 10,700 -1,935 Descending Minneapolis Center
Fri 02:55:32 PM 40.9125 -95.3083 283° West 287 330 10,100 -2,060 Descending Minneapolis Center
Fri 02:56:21 PM 40.9578 -95.3703 314° West 269 310 8,400 -1,935 Descending Minneapolis Center
Fri 02:56:34 PM 40.9581 -95.3836 272° West 275 316 8,100 -2,100 Descending Minneapolis Center
Fri 02:57:21 PM 41.0008 -95.4450 313° West 253 291 6,300 -2,032 Descending Minneapolis Center
Fri 02:57:36 PM 41.0022 -95.4564 279° West 265 305 6,000 -1,672 Descending Minneapolis Center
Fri 02:58:22 PM 41.0433 -95.5144 313° West 245 282 4,600 -1,355 Descending Minneapolis Center
Fri 02:58:38 PM 41.0436 -95.5267 272° West 254 292 4,600 -655 Level Minneapolis Center
Fri 02:59:17 PM 41.0722 -95.5692 312° West 185 213 4,000 -581 Descending Minneapolis Center
Fri 02:59:40 PM 41.0761 -95.5819 292° West 217 250 4,000 -98 Level Minneapolis Center
Fri 03:00:18 PM 41.1056 -95.6261 312° West 199 229 3,900 -290 Descending Minneapolis Center
Fri 03:00:42 PM 41.1094 -95.6394 291° West 201 231 3,700 -885 Descending Minneapolis Center
Fri 03:01:19 PM 41.1411 -95.6881 311° West 197 227 3,000 -677 Descending Minneapolis Center
Fri 03:01:44 PM 41.1506 -95.7092 301° West 201 231 3,000  Level Minneapolis Center
Fri 03:02:19 PM 41.1697 -95.7375 312° West 156 180 3,000  Level Minneapolis Center
Fri 03:02:46 PM 41.1800 -95.7558 307° West 186 214 3,000  Level Minneapolis Center
Fri 03:03:20 PM 41.2000 -95.7864 311° West 178 205 3,000  Level Minneapolis Center
Fri 03:03:48 PM 41.2111 -95.8014 315° West 174 200 3,000 -393 Level Minneapolis Center
Fri 03:04:21 PM 41.2319 -95.8242 321° Northwest 130 150 2,600 -677 Descending Minneapolis Center
Fri 03:04:50 PM 41.2411 -95.8314 329° Northwest 149 171 2,300 -689 Descending Minneapolis Center
Fri 03:05:22 PM 41.2589 -95.8517 319° Northwest 120 138 1,900 -581 Descending Minneapolis Center
Fri 03:05:52 PM 41.2686 -95.8581 334° Northwest 130 150 1,700 -655 Descending Minneapolis Center
Fri 03:06:17 PM 41.2836 -95.8764 317° Northwest 121 139 1,300 -581 Descending Minneapolis Center
Fri 03:06:54 PM 41.2950 -95.8831 336° Northwest 124 143 1,100 -324 Descending Minneapolis Center

Login

Don't have an account? Register now (free) for customized features, flight alerts, and more!